Time;durP1;ratioP1;P1;durP2;ratioP2;P2;SDS_P1;SDS_P2;PMS_P1;PMS_P2;Temp;Humidity;BMP_temperature;BMP_pressure;BME280_temperature;BME280_humidity;BME280_pressure;Samples;Min_cycle;Max_cycle;Signal;HPM_P1;HPM_P2
2022/10/09 00:00:34;;;;;;;17.35;7.80;;;6.20;99.90;;;;;;5051304;28;20032;-64
2022/10/09 00:03:00;;;;;;;30.00;7.18;;;6.30;99.90;;;;;;5052181;28;20032;-64
2022/10/09 00:05:26;;;;;;;18.98;7.40;;;6.30;99.90;;;;;;5051382;28;20040;-65
2022/10/09 00:07:52;;;;;;;22.10;7.55;;;6.40;99.90;;;;;;5052371;28;20021;-64
2022/10/09 00:10:18;;;;;;;16.25;6.90;;;6.40;99.90;;;;;;5052274;28;20080;-64
2022/10/09 00:12:44;;;;;;;13.50;7.40;;;6.40;99.90;;;;;;5051250;28;20159;-65
2022/10/09 00:15:09;;;;;;;27.75;6.88;;;6.30;99.90;;;;;;5052169;28;20112;-65
2022/10/09 00:17:35;;;;;;;16.63;6.78;;;6.30;99.90;;;;;;5051393;28;20032;-64
2022/10/09 00:20:01;;;;;;;20.13;7.50;;;6.20;99.90;;;;;;5051453;28;20106;-64
2022/10/09 00:22:27;;;;;;;13.45;7.00;;;6.10;99.90;;;;;;5051357;28;20044;-64
2022/10/09 00:24:53;;;;;;;14.23;6.82;;;6.10;99.90;;;;;;5052026;28;20033;-64
2022/10/09 00:27:23;;;;;;;12.88;6.82;;;6.10;99.90;;;;;;5052009;28;20115;-64
2022/10/09 00:29:49;;;;;;;;;;;6.00;99.90;;;;;;5051844;28;20043;-65
2022/10/09 00:32:16;;;;;;;13.50;6.90;;;6.00;99.90;;;;;;5051147;28;20324;-64
2022/10/09 00:34:42;;;;;;;11.85;6.25;;;6.00;99.90;;;;;;5051061;28;20021;-65
2022/10/09 00:37:07;;;;;;;11.20;5.88;;;5.90;99.90;;;;;;5051767;28;20024;-64
2022/10/09 00:39:33;;;;;;;11.65;6.28;;;5.90;99.90;;;;;;5050945;28;20039;-63
2022/10/09 00:41:59;;;;;;;11.93;6.55;;;5.90;99.90;;;;;;5051739;28;20102;-63
2022/10/09 00:44:48;;;;;;;10.23;5.85;;;5.90;99.90;;;;;;5049876;28;20037;-66
2022/10/09 00:47:26;;;;;;;11.13;5.78;;;5.80;99.90;;;;;;5050149;28;20476;-64
2022/10/09 00:49:55;;;;;;;12.20;6.30;;;5.70;99.90;;;;;;5051044;28;20048;-64
2022/10/09 00:52:22;;;;;;;14.50;6.45;;;5.60;99.90;;;;;;5051424;28;20087;-64
2022/10/09 00:54:48;;;;;;;11.35;6.35;;;5.60;99.90;;;;;;5050377;28;20103;-66
2022/10/09 00:57:14;;;;;;;11.48;6.07;;;5.60;99.90;;;;;;5051312;28;20116;-64
2022/10/09 00:59:40;;;;;;;11.02;5.63;;;5.60;99.90;;;;;;5050575;28;20416;-65
2022/10/09 01:02:06;;;;;;;12.65;6.45;;;5.60;99.90;;;;;;5051148;28;20029;-65
2022/10/09 01:04:32;;;;;;;11.45;6.28;;;5.60;99.90;;;;;;5050093;28;20110;-65
2022/10/09 01:07:22;;;;;;;8.85;5.53;;;5.60;99.90;;;;;;5051179;28;20548;-64
2022/10/09 01:09:50;;;;;;;12.45;6.03;;;5.60;99.90;;;;;;5050059;28;20033;-64
2022/10/09 01:12:43;;;;;;;10.85;5.93;;;5.50;99.90;;;;;;5051116;28;20025;-64
2022/10/09 01:15:18;;;;;;;13.98;6.43;;;5.50;99.90;;;;;;5051162;28;20071;-64
2022/10/09 01:18:15;;;;;;;10.50;6.07;;;5.40;99.90;;;;;;5049795;28;20033;-64
2022/10/09 01:20:52;;;;;;;10.23;5.78;;;5.40;99.90;;;;;;5039855;28;20048;-65
2022/10/09 01:23:41;;;;;;;10.48;6.03;;;5.40;99.90;;;;;;5051005;28;20487;-65
2022/10/09 01:26:15;;;;;;;9.48;5.72;;;5.40;99.90;;;;;;5050973;28;20442;-67
2022/10/09 01:29:04;;;;;;;10.55;5.70;;;5.40;99.90;;;;;;5049653;28;20025;-65
2022/10/09 01:31:34;;;;;;;11.40;5.68;;;5.30;99.90;;;;;;5050269;28;20029;-67
2022/10/09 01:34:01;;;;;;;10.32;5.43;;;5.30;99.90;;;;;;5051134;28;20104;-65
2022/10/09 01:36:30;;;;;;;11.57;6.03;;;5.30;99.90;;;;;;5050361;28;20083;-66
2022/10/09 01:39:02;;;;;;;10.50;5.80;;;5.30;99.90;;;;;;5050181;28;20116;-65
2022/10/09 01:41:28;;;;;;;11.57;5.43;;;5.30;99.90;;;;;;5050560;28;20032;-68
2022/10/09 01:43:54;;;;;;;13.15;5.88;;;5.30;99.90;;;;;;5048775;28;20086;-64
2022/10/09 01:46:26;;;;;;;11.48;5.88;;;5.20;99.90;;;;;;5048777;28;20123;-65
2022/10/09 01:49:13;;;;;;;11.52;5.97;;;5.20;99.90;;;;;;5048900;28;20469;-64
2022/10/09 01:52:04;;;;;;;10.20;5.55;;;5.20;99.90;;;;;;5049646;28;20048;-66
2022/10/09 01:55:18;;;;;;;11.27;5.43;;;5.10;99.90;;;;;;5049886;28;20025;-68
2022/10/09 01:58:04;;;;;;;8.65;5.10;;;5.10;99.90;;;;;;5011156;28;20094;-65
2022/10/09 02:00:34;;;;;;;14.30;5.43;;;5.10;99.90;;;;;;5049890;28;20075;-67
2022/10/09 02:03:03;;;;;;;8.23;5.20;;;5.00;99.90;;;;;;5048793;28;20358;-63
2022/10/09 02:05:30;;;;;;;9.13;5.68;;;5.10;99.90;;;;;;5049881;28;20032;-66
2022/10/09 02:07:57;;;;;;;9.32;5.55;;;5.00;99.90;;;;;;5049362;28;20025;-63
2022/10/09 02:10:24;;;;;;;10.30;6.05;;;5.00;99.90;;;;;;5049867;28;20071;-65
2022/10/09 02:12:57;;;;;;;12.55;5.38;;;5.00;99.90;;;;;;5049135;28;20175;-64
2022/10/09 02:15:29;;;;;;;12.40;6.07;;;5.00;99.90;;;;;;5048709;28;20033;-63
2022/10/09 02:18:02;;;;;;;8.38;5.47;;;5.00;99.90;;;;;;5049251;28;20107;-64
2022/10/09 02:20:34;;;;;;;11.38;5.40;;;4.90;99.90;;;;;;5049821;28;20057;-64
2022/10/09 02:23:04;;;;;;;9.90;5.30;;;4.90;99.90;;;;;;5048508;28;20090;-65
2022/10/09 02:25:30;;;;;;;10.55;5.18;;;4.90;99.90;;;;;;5049425;28;20025;-68
2022/10/09 02:27:56;;;;;;;10.13;5.13;;;4.90;99.90;;;;;;5049439;28;20039;-63
2022/10/09 02:30:25;;;;;;;10.73;6.15;;;4.90;99.90;;;;;;5048268;28;20051;-64
2022/10/09 02:32:52;;;;;;;7.47;3.83;;;4.90;99.90;;;;;;5048690;28;20027;-64
2022/10/09 02:35:19;;;;;;;8.60;4.68;;;4.80;99.90;;;;;;5049571;28;20070;-65
2022/10/09 02:37:45;;;;;;;9.30;5.30;;;4.80;99.90;;;;;;5048514;28;20040;-65
2022/10/09 02:40:10;;;;;;;7.35;4.57;;;4.80;99.90;;;;;;5049478;28;20374;-65
2022/10/09 02:42:36;;;;;;;8.05;5.07;;;4.70;99.90;;;;;;5048775;28;20397;-64
2022/10/09 02:45:02;;;;;;;9.48;5.20;;;4.70;99.90;;;;;;5049502;28;20032;-65
2022/10/09 02:47:28;;;;;;;10.50;5.53;;;4.70;99.90;;;;;;5049407;28;20115;-65
2022/10/09 02:49:55;;;;;;;11.18;5.30;;;4.80;99.90;;;;;;5048307;28;20666;-65
2022/10/09 02:52:21;;;;;;;10.77;5.88;;;4.80;99.90;;;;;;5049338;28;20490;-64
2022/10/09 02:54:46;;;;;;;9.45;5.60;;;4.70;99.90;;;;;;5048464;28;20037;-65
2022/10/09 02:57:12;;;;;;;10.07;5.30;;;4.70;99.90;;;;;;5049090;28;20029;-64
2022/10/09 02:59:37;;;;;;;13.13;5.60;;;4.60;99.90;;;;;;5048552;28;20090;-63
2022/10/09 03:02:03;;;;;;;35.47;6.35;;;4.60;99.90;;;;;;5049014;28;20029;-64
2022/10/09 03:04:29;;;;;;;10.95;5.65;;;4.70;99.90;;;;;;5049331;28;20055;-64
2022/10/09 03:06:54;;;;;;;8.98;5.93;;;4.60;99.90;;;;;;5048726;28;20020;-65
2022/10/09 03:09:20;;;;;;;10.07;5.13;;;4.50;99.90;;;;;;5049291;28;20033;-64
2022/10/09 03:11:46;;;;;;;9.00;5.03;;;4.50;99.90;;;;;;5052062;28;20087;-64
2022/10/09 03:14:11;;;;;;;9.25;5.20;;;4.50;99.90;;;;;;5053359;28;20025;-65
2022/10/09 03:16:37;;;;;;;8.98;5.18;;;4.50;99.90;;;;;;5052294;28;20416;-64
2022/10/09 03:19:02;;;;;;;8.82;4.82;;;4.50;99.90;;;;;;5053163;28;20047;-66
2022/10/09 03:21:28;;;;;;;9.70;5.10;;;4.40;99.90;;;;;;5052871;28;20402;-65
2022/10/09 03:23:54;;;;;;;9.77;5.30;;;4.50;99.90;;;;;;5052328;28;20297;-65
2022/10/09 03:26:22;;;;;;;8.65;4.93;;;4.40;99.90;;;;;;5052893;28;20466;-65
2022/10/09 03:28:49;;;;;;;10.65;5.10;;;4.30;99.90;;;;;;5052257;28;20106;-63
2022/10/09 03:31:17;;;;;;;8.88;5.18;;;4.30;99.90;;;;;;5053092;28;20041;-64
2022/10/09 03:33:43;;;;;;;8.98;5.22;;;4.30;99.90;;;;;;5051910;28;20093;-64
2022/10/09 03:36:08;;;;;;;9.85;5.68;;;4.20;99.90;;;;;;5052913;28;20481;-64
2022/10/09 03:38:34;;;;;;;9.82;5.80;;;4.20;99.90;;;;;;5052450;28;20044;-68
2022/10/09 03:41:02;;;;;;;12.02;5.35;;;4.20;99.90;;;;;;5052482;28;20458;-64
2022/10/09 03:43:27;;;;;;;18.70;5.30;;;4.20;99.90;;;;;;5052889;28;20108;-64
2022/10/09 03:45:53;;;;;;;10.15;5.20;;;4.20;99.90;;;;;;5051961;28;20136;-65
2022/10/09 03:48:19;;;;;;;15.23;5.20;;;4.20;99.90;;;;;;5051276;28;20355;-64
2022/10/09 03:50:45;;;;;;;13.75;5.28;;;4.20;99.90;;;;;;5051588;28;20088;-64
2022/10/09 03:53:11;;;;;;;8.52;4.68;;;4.20;99.90;;;;;;5052684;28;20104;-63
2022/10/09 03:55:38;;;;;;;9.02;4.90;;;4.10;99.90;;;;;;5052119;28;20112;-67
2022/10/09 03:58:04;;;;;;;11.70;4.90;;;4.00;99.90;;;;;;5052388;28;20039;-64
2022/10/09 04:00:30;;;;;;;7.43;4.35;;;4.00;99.90;;;;;;5052461;28;20037;-63
2022/10/09 04:02:56;;;;;;;7.32;4.28;;;4.10;99.90;;;;;;5051491;28;20027;-64
2022/10/09 04:05:22;;;;;;;7.03;4.35;;;4.00;99.90;;;;;;5052080;28;20492;-65
2022/10/09 04:07:48;;;;;;;7.65;4.60;;;4.00;99.90;;;;;;5051618;28;20047;-64
2022/10/09 04:10:14;;;;;;;8.48;4.45;;;4.00;99.90;;;;;;5050895;28;20033;-65
2022/10/09 04:12:40;;;;;;;8.90;4.93;;;4.00;99.90;;;;;;5051776;28;20044;-68
2022/10/09 04:15:06;;;;;;;7.35;4.40;;;4.00;99.90;;;;;;5052253;28;20029;-64
2022/10/09 04:17:31;;;;;;;12.65;4.78;;;3.90;99.90;;;;;;5052429;28;20104;-64
2022/10/09 04:19:57;;;;;;;7.88;4.57;;;3.90;99.90;;;;;;5050651;28;20140;-64
2022/10/09 04:22:23;;;;;;;9.32;4.63;;;3.90;99.90;;;;;;5051519;28;20029;-65
2022/10/09 04:24:49;;;;;;;8.05;4.50;;;3.90;99.90;;;;;;5051560;28;20579;-64
2022/10/09 04:27:14;;;;;;;8.57;4.57;;;3.90;99.90;;;;;;5051740;28;20040;-64
2022/10/09 04:29:40;;;;;;;6.50;4.20;;;3.90;99.90;;;;;;5051312;28;20381;-67
2022/10/09 04:32:05;;;;;;;8.25;4.30;;;3.90;99.90;;;;;;5051777;28;20057;-64
2022/10/09 04:34:31;;;;;;;7.50;4.43;;;3.80;99.90;;;;;;5050328;28;20041;-64
2022/10/09 04:36:57;;;;;;;8.20;4.40;;;3.80;99.90;;;;;;5050999;28;20029;-65
2022/10/09 04:39:23;;;;;;;7.95;4.40;;;3.90;99.90;;;;;;5051695;28;20032;-65
2022/10/09 04:41:48;;;;;;;15.75;5.10;;;3.80;99.90;;;;;;5051001;28;20029;-65
2022/10/09 04:44:14;;;;;;;8.57;4.85;;;3.90;99.90;;;;;;5051978;28;20386;-64
2022/10/09 04:46:39;;;;;;;17.08;4.85;;;3.80;99.90;;;;;;5051520;28;20462;-67
2022/10/09 04:49:05;;;;;;;7.32;4.22;;;3.70;99.90;;;;;;5050590;28;20040;-64
2022/10/09 04:51:31;;;;;;;7.78;4.32;;;3.70;99.90;;;;;;5050922;28;20548;-64
2022/10/09 04:53:57;;;;;;;8.18;4.53;;;3.70;99.90;;;;;;5050374;28;20083;-64
2022/10/09 04:56:24;;;;;;;8.45;4.60;;;3.70;99.90;;;;;;5050911;28;20033;-64
2022/10/09 04:58:50;;;;;;;9.50;5.43;;;3.70;99.90;;;;;;5050246;28;20120;-65
2022/10/09 05:01:18;;;;;;;7.65;4.53;;;3.70;99.90;;;;;;5051639;28;20025;-64
2022/10/09 05:03:44;;;;;;;9.07;4.72;;;3.70;99.90;;;;;;5050488;28;20029;-64
2022/10/09 05:06:11;;;;;;;9.25;4.32;;;3.70;99.90;;;;;;5051260;28;20040;-64
2022/10/09 05:08:38;;;;;;;7.05;4.20;;;3.70;99.90;;;;;;5050607;28;20586;-64
2022/10/09 05:11:07;;;;;;;7.60;4.45;;;3.70;99.90;;;;;;5050133;28;20052;-64
2022/10/09 05:13:35;;;;;;;8.32;4.50;;;3.60;99.90;;;;;;5051127;28;20036;-64
2022/10/09 05:16:10;;;;;;;10.25;4.90;;;3.60;99.90;;;;;;5050311;28;20029;-65
2022/10/09 05:18:44;;;;;;;9.50;4.82;;;3.50;99.90;;;;;;5051040;28;20029;-64
2022/10/09 05:21:10;;;;;;;8.32;4.50;;;3.60;99.90;;;;;;5050603;28;20061;-65
2022/10/09 05:23:35;;;;;;;8.98;4.50;;;3.50;99.90;;;;;;5050108;28;20453;-64
2022/10/09 05:26:05;;;;;;;9.30;5.03;;;3.40;99.90;;;;;;5049728;28;20075;-64
2022/10/09 05:28:31;;;;;;;10.65;4.97;;;3.30;99.90;;;;;;5050533;28;20029;-65
2022/10/09 05:30:57;;;;;;;9.55;4.72;;;3.40;99.90;;;;;;5049845;28;20040;-64
2022/10/09 05:33:22;;;;;;;7.85;4.80;;;3.40;99.90;;;;;;5049987;28;20028;-64
2022/10/09 05:35:52;;;;;;;9.35;5.22;;;3.50;99.90;;;;;;5049545;28;20029;-64
2022/10/09 05:38:18;;;;;;;8.43;4.80;;;3.60;99.90;;;;;;5050499;28;20217;-64
2022/10/09 05:41:11;;;;;;;8.35;4.70;;;3.60;99.90;;;;;;5049538;28;20112;-68
2022/10/09 05:43:39;;;;;;;9.93;4.68;;;3.60;99.90;;;;;;5047445;28;20060;-66
2022/10/09 05:46:24;;;;;;;7.95;4.22;;;3.60;99.90;;;;;;5049599;28;20217;-64
2022/10/09 05:48:53;;;;;;;10.80;4.85;;;3.60;99.90;;;;;;5049535;28;20039;-64
2022/10/09 05:51:24;;;;;;;8.80;4.57;;;3.70;99.90;;;;;;5050478;28;20043;-64
2022/10/09 05:53:50;;;;;;;12.60;4.60;;;3.60;99.90;;;;;;5048287;28;20036;-64
2022/10/09 05:56:20;;;;;;;13.02;5.10;;;3.70;99.90;;;;;;5050394;28;20458;-64
2022/10/09 05:58:53;;;;;;;8.98;4.80;;;3.60;99.90;;;;;;5049655;28;20473;-68
2022/10/09 06:01:21;;;;;;;11.60;4.88;;;3.60;99.90;;;;;;5050359;28;20037;-65
2022/10/09 06:03:51;;;;;;;9.70;4.60;;;3.60;99.90;;;;;;5049256;28;20028;-65
2022/10/09 06:06:17;;;;;;;7.37;4.43;;;3.60;99.90;;;;;;5050180;28;20029;-63
2022/10/09 06:08:43;;;;;;;13.50;5.72;;;3.60;99.90;;;;;;5048861;28;20421;-67
2022/10/09 06:11:18;;;;;;;11.05;5.47;;;3.60;99.90;;;;;;5049645;28;20037;-65
2022/10/09 06:13:44;;;;;;;10.70;5.50;;;3.60;99.90;;;;;;5049827;28;20028;-65
2022/10/09 06:16:12;;;;;;;17.95;7.93;;;3.50;99.90;;;;;;5049720;28;20096;-63
2022/10/09 06:18:39;;;;;;;32.45;10.48;;;3.60;99.90;;;;;;5049939;28;20082;-63
2022/10/09 06:21:05;;;;;;;35.63;14.65;;;3.80;99.90;;;;;;5047046;28;20275;-64
2022/10/09 06:23:31;;;;;;;16.27;6.88;;;4.00;99.90;;;;;;5049857;28;20056;-64
2022/10/09 06:25:59;;;;;;;14.70;6.72;;;4.10;99.90;;;;;;5048955;28;20200;-64
2022/10/09 06:28:29;;;;;;;15.20;5.88;;;4.20;99.90;;;;;;5049662;28;20064;-64
2022/10/09 06:31:01;;;;;;;16.15;6.07;;;4.10;99.90;;;;;;5048974;28;20392;-64
2022/10/09 06:33:31;;;;;;;14.65;5.57;;;4.00;99.90;;;;;;5049451;28;20111;-64
2022/10/09 06:36:21;;;;;;;11.80;5.72;;;4.20;99.90;;;;;;5048894;28;20437;-65
2022/10/09 06:38:47;;;;;;;16.75;5.88;;;4.50;99.90;;;;;;5048679;28;20089;-67
2022/10/09 06:41:17;;;;;;;13.32;6.53;;;4.50;99.90;;;;;;5049417;28;20112;-65
2022/10/09 06:43:55;;;;;;;16.85;7.55;;;4.60;99.90;;;;;;5049550;28;20036;-64
2022/10/09 06:46:23;;;;;;;16.70;7.15;;;4.80;99.90;;;;;;5048227;28;20032;-64
2022/10/09 06:48:49;;;;;;;12.85;7.28;;;4.80;99.90;;;;;;5048248;28;20477;-68
2022/10/09 06:51:17;;;;;;;13.20;7.22;;;4.80;99.90;;;;;;5049490;28;20082;-64
2022/10/09 06:53:48;;;;;;;14.02;7.47;;;4.90;99.90;;;;;;5048880;28;20059;-65
2022/10/09 06:56:15;;;;;;;16.27;7.70;;;5.00;99.90;;;;;;5049333;28;20132;-65
2022/10/09 06:58:42;;;;;;;16.17;6.82;;;5.20;99.90;;;;;;5049369;28;20031;-64
2022/10/09 07:01:13;;;;;;;14.15;7.70;;;5.30;99.90;;;;;;5048471;28;20094;-64
2022/10/09 07:03:42;;;;;;;17.08;8.48;;;5.50;99.90;;;;;;5048956;28;20019;-64
2022/10/09 07:06:19;;;;;;;19.75;8.98;;;5.70;99.90;;;;;;5048492;28;20558;-64
2022/10/09 07:08:47;;;;;;;20.38;9.40;;;5.90;99.90;;;;;;5049222;28;20076;-65
2022/10/09 07:11:24;;;;;;;22.05;10.07;;;6.00;99.90;;;;;;5048606;28;20470;-63
2022/10/09 07:13:55;;;;;;;22.73;10.32;;;6.20;99.90;;;;;;5048197;28;20052;-68
2022/10/09 07:16:23;;;;;;;20.73;10.35;;;6.50;99.90;;;;;;5049015;28;20112;-64
2022/10/09 07:18:49;;;;;;;20.20;10.23;;;6.70;99.90;;;;;;5048995;28;20029;-68
2022/10/09 07:21:15;;;;;;;28.33;11.30;;;6.90;99.90;;;;;;5048865;28;20521;-64
2022/10/09 07:23:42;;;;;;;29.65;11.65;;;7.20;99.90;;;;;;5049105;28;20036;-65
2022/10/09 07:26:20;;;;;;;24.95;10.43;;;7.50;99.90;;;;;;5048225;28;20060;-64
2022/10/09 07:28:47;;;;;;;23.80;10.20;;;7.70;99.90;;;;;;5049093;28;20079;-64
2022/10/09 07:31:13;;;;;;;19.58;9.20;;;8.00;99.90;;;;;;5048417;28;20033;-64
2022/10/09 07:33:40;;;;;;;17.63;9.10;;;8.20;99.90;;;;;;5049077;28;20040;-63
2022/10/09 07:36:07;;;;;;;23.83;8.88;;;8.40;99.90;;;;;;5048201;28;20067;-64
2022/10/09 07:38:33;;;;;;;21.25;8.23;;;8.70;99.90;;;;;;5048821;28;20029;-64
2022/10/09 07:41:05;;;;;;;21.80;9.18;;;8.80;99.90;;;;;;5047962;28;20852;-64
2022/10/09 07:43:34;;;;;;;19.02;8.27;;;9.00;99.90;;;;;;5048927;28;20033;-64
2022/10/09 07:46:00;;;;;;;19.38;8.30;;;9.20;99.90;;;;;;5047870;28;20652;-65
2022/10/09 07:48:26;;;;;;;15.23;7.73;;;9.30;99.90;;;;;;5048608;28;20033;-63
2022/10/09 07:50:53;;;;;;;18.88;7.93;;;9.50;99.90;;;;;;5048045;28;20033;-68
2022/10/09 07:53:19;;;;;;;18.38;8.05;;;9.60;99.90;;;;;;5048349;28;20033;-64
2022/10/09 07:55:46;;;;;;;17.98;7.65;;;9.80;99.90;;;;;;5048659;28;20087;-66
2022/10/09 07:58:12;;;;;;;19.10;6.75;;;10.00;99.90;;;;;;5051714;28;20021;-65
2022/10/09 08:00:38;;;;;;;15.18;6.82;;;10.10;99.90;;;;;;5052595;28;20036;-64
2022/10/09 08:03:04;;;;;;;18.20;6.75;;;10.20;99.90;;;;;;5051901;28;20033;-63
2022/10/09 08:05:29;;;;;;;11.93;7.00;;;10.30;99.90;;;;;;5052445;28;20037;-65
2022/10/09 08:07:56;;;;;;;14.55;6.43;;;10.30;99.90;;;;;;5051503;28;20098;-64
2022/10/09 08:10:21;;;;;;;14.32;6.65;;;10.40;99.90;;;;;;5051979;28;20450;-63
2022/10/09 08:12:47;;;;;;;12.82;5.97;;;10.40;99.90;;;;;;5052378;28;20112;-61
2022/10/09 08:15:13;;;;;;;15.85;6.95;;;10.60;99.90;;;;;;5049555;28;20224;-65
2022/10/09 08:17:39;;;;;;;13.82;6.93;;;10.60;99.90;;;;;;5051988;28;20385;-64
2022/10/09 08:20:05;;;;;;;15.07;6.55;;;10.60;99.90;;;;;;5050906;28;20084;-63
2022/10/09 08:22:31;;;;;;;17.35;6.82;;;10.70;99.90;;;;;;5052361;28;20033;-63
2022/10/09 08:24:56;;;;;;;14.30;5.47;;;10.80;99.90;;;;;;5051332;28;20154;-64
2022/10/09 08:27:22;;;;;;;11.40;5.82;;;11.00;99.90;;;;;;5050648;28;20082;-62
2022/10/09 08:29:48;;;;;;;12.48;6.38;;;11.10;99.90;;;;;;5051607;28;20041;-64
2022/10/09 08:32:14;;;;;;;14.73;5.55;;;11.30;99.90;;;;;;5051196;28;20355;-63
2022/10/09 08:34:39;;;;;;;11.30;4.63;;;11.30;99.90;;;;;;5051553;28;20025;-65
2022/10/09 08:37:05;;;;;;;11.60;5.03;;;11.50;99.90;;;;;;5050565;28;20473;-65
2022/10/09 08:39:31;;;;;;;9.57;4.35;;;11.60;99.90;;;;;;5051541;28;20040;-64
2022/10/09 08:42:00;;;;;;;13.85;4.57;;;11.80;99.90;;;;;;5051209;28;20450;-64
2022/10/09 08:44:48;;;;;;;10.73;4.75;;;11.90;99.90;;;;;;5051747;28;20029;-63
2022/10/09 08:47:16;;;;;;;14.85;5.00;;;12.10;99.90;;;;;;5050825;28;20024;-64
2022/10/09 08:50:04;;;;;;;6.97;4.05;;;12.30;99.90;;;;;;5050804;28;20049;-64
2022/10/09 08:53:01;;;;;;;8.32;4.20;;;12.40;99.90;;;;;;5051554;28;20430;-63
2022/10/09 08:55:40;;;;;;;9.02;3.75;;;12.60;99.90;;;;;;5051186;28;20061;-65
2022/10/09 08:58:12;;;;;;;6.97;3.05;;;12.70;99.90;;;;;;5049509;28;20381;-63
2022/10/09 09:00:44;;;;;;;7.03;3.70;;;12.80;99.90;;;;;;5051190;28;20539;-63
2022/10/09 09:03:50;;;;;;;7.35;3.45;;;12.90;99.90;;;;;;5050705;28;20116;-64
2022/10/09 09:06:39;;;;;;;7.07;3.58;;;13.00;99.90;;;;;;5050877;28;20021;-63
2022/10/09 09:09:12;;;;;;;9.73;3.03;;;13.20;99.90;;;;;;5048049;28;20037;-64
2022/10/09 09:12:00;;;;;;;10.00;2.70;;;13.30;99.90;;;;;;5050932;28;20036;-62
2022/10/09 09:14:39;;;;;;;5.32;2.72;;;13.50;99.90;;;;;;5049828;28;20025;-65
2022/10/09 09:17:22;;;;;;;8.55;2.80;;;13.50;99.90;;;;;;5050324;28;20040;-64
2022/10/09 09:20:11;;;;;;;8.73;2.53;;;13.60;99.90;;;;;;5050377;28;20474;-64
2022/10/09 09:22:44;;;;;;;9.55;2.70;;;13.50;99.90;;;;;;5049662;28;20065;-64
2022/10/09 09:25:23;;;;;;;9.30;3.00;;;13.50;99.90;;;;;;5050446;28;20032;-64
2022/10/09 09:27:51;;;;;;;4.78;2.35;;;13.60;99.90;;;;;;5050981;28;20029;-64
2022/10/09 09:30:36;;;;;;;7.32;3.03;;;13.60;99.90;;;;;;5050092;28;20029;-65
2022/10/09 09:33:32;;;;;;;7.18;2.60;;;13.70;99.90;;;;;;5049732;28;20048;-66
2022/10/09 09:36:21;;;;;;;8.68;2.38;;;13.80;99.90;;;;;;5047463;28;20048;-69
2022/10/09 09:38:49;;;;;;;5.35;2.38;;;13.80;99.90;;;;;;5050802;28;20056;-63
2022/10/09 09:41:14;;;;;;;12.35;2.35;;;14.00;99.90;;;;;;5049837;28;20091;-66
2022/10/09 09:43:41;;;;;;;6.35;2.35;;;14.30;99.90;;;;;;5050273;28;20059;-63
2022/10/09 09:46:16;;;;;;;6.53;2.42;;;14.30;99.90;;;;;;5049894;28;20480;-62
2022/10/09 09:48:46;;;;;;;9.15;2.65;;;14.50;99.90;;;;;;5050310;28;20029;-64
2022/10/09 09:51:23;;;;;;;4.80;2.03;;;14.50;99.90;;;;;;5049697;28;20037;-63
2022/10/09 09:54:05;;;;;;;6.50;2.05;;;14.50;99.90;;;;;;5050362;28;20162;-65
2022/10/09 09:56:38;;;;;;;8.07;2.17;;;14.40;99.90;;;;;;5049916;28;20091;-62
2022/10/09 09:59:05;;;;;;;4.55;1.98;;;14.50;99.90;;;;;;5049531;28;20071;-64
2022/10/09 10:01:33;;;;;;;5.10;2.47;;;14.60;99.90;;;;;;5050031;28;20369;-64
2022/10/09 10:04:01;;;;;;;4.82;2.33;;;14.70;99.90;;;;;;5049793;28;20063;-66
2022/10/09 10:06:42;;;;;;;3.38;1.90;;;14.90;99.90;;;;;;5048962;28;20074;-65
2022/10/09 10:09:16;;;;;;;4.13;1.90;;;15.10;99.90;;;;;;5049323;28;20052;-62
2022/10/09 10:11:46;;;;;;;8.95;2.35;;;15.30;99.90;;;;;;5050114;28;20086;-65
2022/10/09 10:14:15;;;;;;;3.17;1.88;;;15.40;99.90;;;;;;5049236;28;20115;-65
2022/10/09 10:16:42;;;;;;;8.00;2.15;;;15.60;99.90;;;;;;5049923;28;20028;-63
2022/10/09 10:19:29;;;;;;;7.28;2.30;;;15.50;99.90;;;;;;5048178;28;20453;-63
2022/10/09 10:21:55;;;;;;;6.07;2.15;;;15.70;99.90;;;;;;5047811;28;20549;-62
2022/10/09 10:24:30;;;;;;;6.85;1.70;;;15.70;99.90;;;;;;5048899;28;20128;-63
2022/10/09 10:27:24;;;;;;;5.13;1.80;;;15.70;99.90;;;;;;5049872;28;20529;-66
2022/10/09 10:29:54;;;;;;;5.03;2.08;;;15.80;99.90;;;;;;5049751;28;20111;-67
2022/10/09 10:32:31;;;;;;;8.43;2.20;;;15.60;99.90;;;;;;5048778;28;20029;-65
2022/10/09 10:35:12;;;;;;;4.38;1.80;;;15.70;99.90;;;;;;5049709;28;20036;-64
2022/10/09 10:38:14;;;;;;;6.43;1.83;;;16.00;99.90;;;;;;5049662;28;20047;-64
2022/10/09 10:40:51;;;;;;;3.35;1.67;;;16.10;99.90;;;;;;5047958;28;20033;-64
2022/10/09 10:43:37;;;;;;;5.30;2.17;;;16.10;99.90;;;;;;5048620;28;20108;-63
2022/10/09 10:46:31;;;;;;;4.07;1.90;;;16.10;99.90;;;;;;5048530;28;20029;-68
2022/10/09 10:48:59;;;;;;;5.20;1.58;;;16.20;99.90;;;;;;5049530;28;20041;-65
2022/10/09 10:51:46;;;;;;;6.63;1.80;;;16.20;99.90;;;;;;5048759;28;20045;-65
2022/10/09 10:54:29;;;;;;;5.90;1.88;;;16.10;99.90;;;;;;5048489;28;20068;-64
2022/10/09 10:57:15;;;;;;;9.45;2.20;;;16.00;99.90;;;;;;5049225;28;20393;-64
2022/10/09 11:00:05;;;;;;;6.22;2.13;;;16.30;99.90;;;;;;5049319;28;20457;-64
2022/10/09 11:02:49;;;;;;;5.10;2.03;;;16.60;99.90;;;;;;5049213;28;20033;-63
2022/10/09 11:05:38;;;;;;;5.43;1.92;;;16.60;99.90;;;;;;5047243;28;20039;-64
2022/10/09 11:08:35;;;;;;;4.10;1.80;;;16.70;99.90;;;;;;5048694;28;20469;-68
2022/10/09 11:11:04;;;;;;;6.75;2.13;;;16.90;99.90;;;;;;5040693;28;20776;-68
2022/10/09 11:13:47;;;;;;;7.53;2.03;;;16.90;99.90;;;;;;5048857;28;20032;-65
2022/10/09 11:16:24;;;;;;;5.88;2.15;;;16.90;99.90;;;;;;5048542;28;20029;-65
2022/10/09 11:19:21;;;;;;;5.53;2.45;;;16.60;99.90;;;;;;5048826;28;20468;-66
2022/10/09 11:21:59;;;;;;;7.97;2.08;;;16.40;99.90;;;;;;5049420;28;20053;-65
2022/10/09 11:24:50;;;;;;;6.28;2.10;;;16.40;99.90;;;;;;5047240;28;20037;-64
2022/10/09 11:27:28;;;;;;;5.75;2.10;;;16.50;99.90;;;;;;5048009;28;20477;-63
2022/10/09 11:30:25;;;;;;;11.98;1.98;;;16.60;99.90;;;;;;5048689;28;20083;-63
2022/10/09 11:33:07;;;;;;;4.88;1.52;;;16.40;99.90;;;;;;5047679;28;20048;-66
2022/10/09 11:35:45;;;;;;;7.07;1.90;;;16.30;99.90;;;;;;5052786;28;20628;-66
2022/10/09 11:38:28;;;;;;;3.78;1.60;;;16.10;99.90;;;;;;5050669;28;20033;-62
2022/10/09 11:40:55;;;;;;;7.00;2.33;;;16.20;99.90;;;;;;5052600;28;20059;-66
2022/10/09 11:43:23;;;;;;;7.50;2.05;;;16.40;99.90;;;;;;5051289;28;20029;-64
2022/10/09 11:46:02;;;;;;;6.20;1.60;;;16.70;99.90;;;;;;5052576;28;20647;-63
2022/10/09 11:48:50;;;;;;;9.52;2.00;;;16.70;99.90;;;;;;5051964;28;20028;-63
2022/10/09 11:51:28;;;;;;;4.53;2.08;;;16.70;99.90;;;;;;5050469;28;20037;-63
2022/10/09 11:53:54;;;;;;;4.85;1.52;;;17.00;99.90;;;;;;5052483;28;20025;-65
2022/10/09 11:56:21;;;;;;;4.88;1.80;;;17.40;99.90;;;;;;5051661;28;20075;-64
2022/10/09 11:58:58;;;;;;;8.20;1.80;;;17.50;99.90;;;;;;5052234;28;20470;-65
2022/10/09 12:01:30;;;;;;;3.60;1.70;;;17.40;99.90;;;;;;5051801;28;20075;-64
2022/10/09 12:04:02;;;;;;;4.57;2.05;;;17.30;99.90;;;;;;5052275;28;20036;-64
2022/10/09 12:06:29;;;;;;;4.78;1.73;;;17.40;99.90;;;;;;5051761;28;20040;-64
2022/10/09 12:09:06;;;;;;;3.72;1.80;;;17.40;99.90;;;;;;5052592;28;20385;-62
2022/10/09 12:11:33;;;;;;;3.90;1.75;;;17.70;99.90;;;;;;5051439;28;20029;-63
2022/10/09 12:14:07;;;;;;;5.75;1.95;;;17.80;99.90;;;;;;5052096;28;20064;-63
2022/10/09 12:16:45;;;;;;;4.90;1.73;;;17.50;99.90;;;;;;5052103;28;20111;-64
2022/10/09 12:19:33;;;;;;;2.85;1.70;;;17.10;99.90;;;;;;5051227;28;20055;-65
2022/10/09 12:22:16;;;;;;;5.68;2.00;;;17.00;99.90;;;;;;5052073;28;20049;-62
2022/10/09 12:24:46;;;;;;;3.33;1.92;;;17.10;99.90;;;;;;5051631;28;20048;-66
2022/10/09 12:27:20;;;;;;;6.15;1.83;;;17.10;99.90;;;;;;5051318;28;20040;-63
2022/10/09 12:29:58;;;;;;;5.53;1.90;;;17.00;99.90;;;;;;5051985;28;20033;-63
2022/10/09 12:32:35;;;;;;;10.02;2.20;;;16.90;99.90;;;;;;5051012;28;20037;-62
2022/10/09 12:35:28;;;;;;;6.20;1.60;;;17.10;99.90;;;;;;5051924;28;20032;-64
2022/10/09 12:37:54;;;;;;;5.97;2.10;;;17.20;99.90;;;;;;5030929;28;20164;-65
2022/10/09 12:40:32;;;;;;;6.15;1.85;;;17.30;99.90;;;;;;5030907;28;20060;-66
2022/10/09 12:43:04;;;;;;;5.07;1.77;;;17.20;99.90;;;;;;5032208;28;20038;-64
2022/10/09 12:45:31;;;;;;;4.35;2.03;;;16.90;99.90;;;;;;5050416;28;20031;-63
2022/10/09 12:48:09;;;;;;;4.07;1.95;;;16.70;99.90;;;;;;5051653;28;20033;-64
2022/10/09 12:50:34;;;;;;;4.13;1.95;;;17.00;99.90;;;;;;5050994;28;20049;-64
2022/10/09 12:53:03;;;;;;;8.93;2.03;;;17.40;99.90;;;;;;5051377;28;20044;-63
2022/10/09 12:55:30;;;;;;;5.93;2.55;;;17.80;99.90;;;;;;5050565;28;20219;-65
2022/10/09 12:58:02;;;;;;;4.50;2.20;;;17.90;99.90;;;;;;5050864;28;20025;-63
2022/10/09 13:00:29;;;;;;;6.25;2.55;;;17.90;99.90;;;;;;5050637;28;20033;-63
2022/10/09 13:02:55;;;;;;;4.43;1.88;;;17.50;99.90;;;;;;5051139;28;20036;-64
2022/10/09 13:05:20;;;;;;;6.80;2.30;;;17.30;99.90;;;;;;5048846;28;20384;-65
2022/10/09 13:07:52;;;;;;;6.60;2.53;;;17.30;99.90;;;;;;5051577;28;20036;-63
2022/10/09 13:10:20;;;;;;;7.32;2.45;;;17.00;99.90;;;;;;5050593;28;20033;-62